createdAt,value
2023-01-19T00:02:12.610Z,0.75
2023-01-19T00:06:14.208Z,0.75
2023-01-19T00:10:16.258Z,0.75
2023-01-19T00:14:17.782Z,0.74
2023-01-19T00:18:19.429Z,0.74
2023-01-19T00:22:21.060Z,0.70
2023-01-19T00:26:22.727Z,0.68
2023-01-19T00:30:24.355Z,0.62
2023-01-19T00:34:26.401Z,0.62
2023-01-19T00:38:28.622Z,0.63
2023-01-19T00:42:44.175Z,0.62
2023-01-19T00:46:45.687Z,0.57
2023-01-19T00:50:48.143Z,0.59
2023-01-19T00:54:49.814Z,0.60
2023-01-19T00:58:51.356Z,0.59
2023-01-19T01:02:53.204Z,0.60
2023-01-19T01:06:54.767Z,0.59
2023-01-19T01:10:56.734Z,0.57
2023-01-19T01:14:58.262Z,0.57
2023-01-19T01:18:59.976Z,0.56
2023-01-19T01:23:01.928Z,0.53
2023-01-19T01:27:03.912Z,0.52
2023-01-19T01:31:05.541Z,0.48
2023-01-19T01:35:09.069Z,0.45
2023-01-19T01:39:10.717Z,0.48
2023-01-19T01:43:17.054Z,0.45
2023-01-19T01:47:37.364Z,0.45
2023-01-19T01:51:44.601Z,0.48
2023-01-19T01:55:49.607Z,0.44
2023-01-19T01:59:51.182Z,0.43
2023-01-19T02:03:54.042Z,0.45
2023-01-19T02:08:38.503Z,0.43
2023-01-19T02:12:58.703Z,0.43
2023-01-19T02:17:01.170Z,0.41
2023-01-19T02:21:21.139Z,0.41
2023-01-19T02:25:23.943Z,0.40
2023-01-19T02:29:26.717Z,0.38
2023-01-19T02:33:28.319Z,0.37
2023-01-19T02:37:36.585Z,0.37
2023-01-19T02:41:42.355Z,0.35
2023-01-19T02:45:43.965Z,0.38
2023-01-19T02:49:54.076Z,0.38
2023-01-19T02:53:55.530Z,0.38
2023-01-19T02:58:15.503Z,0.37
2023-01-19T03:02:35.745Z,0.34
2023-01-19T03:06:49.571Z,0.33
2023-01-19T03:11:02.688Z,0.33
2023-01-19T03:15:21.132Z,0.33
2023-01-19T03:19:34.224Z,0.33
2023-01-19T03:23:39.890Z,0.35
2023-01-19T03:27:43.676Z,0.41
2023-01-19T03:31:50.486Z,0.45
2023-01-19T03:35:56.996Z,0.44
2023-01-19T03:39:58.666Z,0.40
2023-01-19T03:44:01.213Z,0.37
2023-01-19T03:48:03.623Z,0.33
2023-01-19T03:52:05.437Z,0.31
2023-01-19T03:56:16.727Z,0.30
2023-01-19T04:00:18.663Z,0.31
2023-01-19T04:04:20.283Z,0.26
2023-01-19T04:08:21.821Z,0.28
2023-01-19T04:12:23.563Z,0.31
2023-01-19T04:16:25.292Z,0.30
2023-01-19T04:20:28.256Z,0.30
2023-01-19T04:24:29.898Z,0.30
2023-01-19T04:28:32.205Z,0.30
2023-01-19T04:32:33.876Z,0.31
2023-01-19T04:36:35.400Z,0.26
2023-01-19T04:40:37.038Z,0.26
2023-01-19T04:44:38.588Z,0.26
2023-01-19T04:48:41.367Z,0.25
2023-01-19T04:52:43.779Z,0.23
2023-01-19T04:56:45.383Z,0.22
2023-01-19T05:00:47.005Z,0.23
2023-01-19T05:04:48.783Z,0.20
2023-01-19T05:08:50.784Z,0.20
2023-01-19T05:12:52.347Z,0.20
2023-01-19T05:16:53.908Z,0.22
2023-01-19T05:20:55.890Z,0.19
2023-01-19T05:24:57.415Z,0.19
2023-01-19T05:28:58.922Z,0.17
2023-01-19T05:33:00.639Z,0.16
2023-01-19T05:37:02.478Z,0.15
2023-01-19T05:41:04.106Z,0.15
2023-01-19T05:45:06.140Z,0.16
2023-01-19T05:49:07.796Z,0.16
2023-01-19T05:53:09.345Z,0.16
2023-01-19T05:57:11.719Z,0.15
2023-01-19T06:01:13.686Z,0.12
2023-01-19T06:05:15.876Z,0.15
2023-01-19T06:09:17.823Z,0.15
2023-01-19T06:13:19.701Z,0.17
2023-01-19T06:17:21.325Z,0.17
2023-01-19T06:21:23.113Z,0.16
2023-01-19T06:25:25.928Z,0.17
2023-01-19T06:29:29.476Z,0.17
2023-01-19T06:33:31.477Z,0.15
2023-01-19T06:37:33.316Z,0.15
2023-01-19T06:41:35.192Z,0.16
2023-01-19T06:45:38.368Z,0.13
2023-01-19T06:49:40.511Z,0.17
2023-01-19T06:53:42.074Z,0.19
2023-01-19T06:57:44.457Z,0.20
2023-01-19T07:01:46.154Z,0.23
2023-01-19T07:05:50.605Z,0.25
2023-01-19T07:09:54.037Z,0.28
2023-01-19T07:13:55.924Z,0.31
2023-01-19T07:17:58.829Z,0.35
2023-01-19T07:22:00.617Z,0.43
2023-01-19T07:26:02.232Z,0.48
2023-01-19T07:30:04.578Z,0.52
2023-01-19T07:34:06.901Z,0.59
2023-01-19T07:38:08.458Z,0.64
2023-01-19T07:42:10.081Z,0.71
2023-01-19T07:46:11.795Z,0.78
2023-01-19T07:50:13.889Z,0.80
2023-01-19T07:54:15.484Z,0.86
2023-01-19T07:58:17.084Z,0.86
2023-01-19T08:02:18.711Z,0.88
2023-01-19T08:06:23.506Z,0.92
2023-01-19T08:10:27.152Z,0.99
2023-01-19T08:14:28.708Z,1.07
2023-01-19T08:18:30.582Z,1.11
2023-01-19T08:22:32.205Z,1.14
2023-01-19T08:26:35.329Z,1.16
2023-01-19T08:30:37.488Z,1.24
2023-01-19T08:34:39.018Z,1.26
2023-01-19T08:38:43.564Z,1.32
2023-01-19T08:42:45.093Z,1.38
2023-01-19T08:46:47.504Z,1.46
2023-01-19T08:50:50.673Z,1.54
2023-01-19T08:54:52.616Z,1.61
2023-01-19T08:59:08.183Z,1.68
2023-01-19T09:03:13.709Z,1.71
2023-01-19T09:07:15.276Z,1.77
2023-01-19T09:11:17.419Z,1.77
2023-01-19T09:15:19.078Z,1.77
2023-01-19T09:19:20.655Z,1.81
2023-01-19T09:23:22.765Z,1.83
2023-01-19T09:27:24.662Z,1.88
2023-01-19T09:31:26.379Z,1.92
2023-01-19T09:35:28.059Z,1.95
2023-01-19T09:39:29.595Z,2.04
2023-01-19T09:43:41.619Z,2.11
2023-01-19T09:47:44.569Z,2.20
2023-01-19T09:51:49.086Z,2.25
2023-01-19T09:55:51.207Z,2.29
2023-01-19T09:59:57.893Z,2.30
2023-01-19T10:04:28.493Z,2.25
2023-01-19T10:08:41.044Z,2.22
2023-01-19T10:13:14.062Z,2.19
2023-01-19T10:17:23.456Z,2.14
2023-01-19T10:21:31.435Z,2.12
2023-01-19T10:25:33.506Z,2.11
2023-01-19T10:29:37.765Z,2.08
2023-01-19T10:33:39.605Z,2.04
2023-01-19T10:37:42.023Z,2.07
2023-01-19T10:41:49.208Z,2.09
2023-01-19T10:45:51.120Z,2.05
2023-01-19T10:49:52.948Z,2.09
2023-01-19T10:54:00.621Z,2.25
2023-01-19T10:58:02.207Z,2.40
2023-01-19T11:02:12.588Z,2.51
2023-01-19T11:06:17.170Z,2.65
2023-01-19T11:10:24.085Z,2.90
2023-01-19T11:14:29.323Z,3.10
2023-01-19T11:18:37.120Z,3.15
2023-01-19T11:22:38.711Z,3.23
2023-01-19T11:26:49.980Z,3.28
2023-01-19T11:30:56.043Z,3.37
2023-01-19T11:34:57.849Z,3.44
2023-01-19T11:39:15.434Z,3.44
2023-01-19T11:43:16.980Z,3.37
2023-01-19T11:47:28.307Z,3.34
2023-01-19T11:51:58.810Z,3.41
2023-01-19T11:56:15.034Z,3.44
2023-01-19T12:00:22.710Z,3.42
2023-01-19T12:04:35.303Z,3.44
2023-01-19T12:08:41.739Z,3.45
2023-01-19T12:12:43.887Z,3.54
2023-01-19T12:16:46.523Z,3.68
2023-01-19T12:20:51.996Z,3.84
2023-01-19T12:25:01.170Z,3.98
2023-01-19T12:29:15.259Z,4.10
2023-01-19T12:33:25.873Z,4.08
2023-01-19T12:37:29.006Z,4.02
2023-01-19T12:41:31.887Z,4.00
2023-01-19T12:45:39.767Z,3.95
2023-01-19T12:49:45.577Z,3.99
2023-01-19T12:53:53.049Z,3.95
2023-01-19T12:58:15.049Z,3.93
2023-01-19T13:02:52.110Z,3.95
2023-01-19T13:06:54.086Z,3.96
2023-01-19T13:11:12.347Z,3.95
2023-01-19T13:15:28.798Z,3.95
2023-01-19T13:19:56.020Z,3.89
2023-01-19T13:24:00.042Z,3.88
2023-01-19T13:28:07.177Z,3.84
2023-01-19T13:32:18.728Z,3.82
2023-01-19T13:36:26.810Z,3.82
2023-01-19T13:40:38.142Z,3.82
2023-01-19T13:44:51.382Z,3.84
2023-01-19T13:48:59.724Z,3.86
2023-01-19T13:53:02.720Z,3.88
2023-01-19T13:57:04.328Z,3.86
2023-01-19T14:01:06.031Z,3.89
2023-01-19T14:05:14.379Z,3.92
2023-01-19T14:09:20.040Z,3.93
2023-01-19T14:13:26.262Z,3.95
2023-01-19T14:17:30.180Z,3.93
2023-01-19T14:21:40.597Z,3.92
2023-01-19T14:25:44.429Z,3.93
2023-01-19T14:29:49.912Z,3.90
2023-01-19T14:33:55.504Z,3.86
2023-01-19T14:37:57.045Z,3.82
2023-01-19T14:42:01.645Z,3.81
2023-01-19T14:46:03.252Z,3.81
2023-01-19T14:50:28.237Z,3.81
2023-01-19T14:54:40.376Z,3.80
2023-01-19T14:58:41.940Z,3.80
2023-01-19T15:02:44.231Z,3.81
2023-01-19T15:06:46.079Z,3.82
2023-01-19T15:10:47.764Z,3.81
2023-01-19T15:14:49.469Z,3.80
2023-01-19T15:18:51.490Z,3.80
2023-01-19T15:22:53.097Z,3.81
2023-01-19T15:26:55.240Z,3.81
2023-01-19T15:30:58.065Z,3.80
2023-01-19T15:34:59.723Z,3.77
2023-01-19T15:39:01.350Z,3.75
2023-01-19T15:43:02.924Z,3.72
2023-01-19T15:47:04.483Z,3.71
2023-01-19T15:51:06.183Z,3.67
2023-01-19T15:55:11.363Z,3.64
2023-01-19T15:59:13.020Z,3.63
2023-01-19T16:03:14.627Z,3.60
2023-01-19T16:07:16.220Z,3.60
2023-01-19T16:11:18.594Z,3.60
2023-01-19T16:15:20.198Z,3.54
2023-01-19T16:19:21.765Z,3.53
2023-01-19T16:23:23.344Z,3.52
2023-01-19T16:27:26.077Z,3.49
2023-01-19T16:31:28.523Z,3.46
2023-01-19T16:35:30.105Z,3.45
2023-01-19T16:39:31.814Z,3.44
2023-01-19T16:43:33.300Z,3.45
2023-01-19T16:47:34.843Z,3.45
2023-01-19T16:51:36.425Z,3.42
2023-01-19T16:55:41.140Z,3.39
2023-01-19T16:59:44.134Z,3.39
2023-01-19T17:03:45.785Z,3.37
2023-01-19T17:07:47.353Z,3.35
2023-01-19T17:11:48.956Z,3.35
2023-01-19T17:15:50.657Z,3.33
2023-01-19T17:19:52.236Z,3.35
2023-01-19T17:23:55.634Z,3.33
2023-01-19T17:28:01.139Z,3.33
2023-01-19T17:32:02.784Z,3.31
2023-01-19T17:36:10.069Z,3.30
2023-01-19T17:40:12.187Z,3.31
2023-01-19T17:44:14.041Z,3.28
2023-01-19T17:48:17.408Z,3.26
2023-01-19T17:52:19.262Z,3.28
2023-01-19T17:56:25.875Z,3.26
2023-01-19T18:00:27.669Z,3.26
2023-01-19T18:04:32.021Z,3.28
2023-01-19T18:08:34.708Z,3.26
2023-01-19T18:12:37.063Z,3.28
2023-01-19T18:16:38.568Z,3.26
2023-01-19T18:20:40.713Z,3.26
2023-01-19T18:24:44.319Z,3.25
2023-01-19T18:28:46.569Z,3.25
2023-01-19T18:32:48.220Z,3.23
2023-01-19T18:36:49.760Z,3.20
2023-01-19T18:41:05.097Z,3.17
2023-01-19T18:45:07.284Z,3.17
2023-01-19T18:49:09.708Z,3.15
2023-01-19T18:53:11.269Z,3.10
2023-01-19T18:57:13.005Z,3.10
2023-01-19T19:01:32.948Z,3.13
2023-01-19T19:05:34.795Z,3.12
2023-01-19T19:09:36.388Z,3.12
2023-01-19T19:13:37.927Z,3.08
2023-01-19T19:17:39.457Z,3.07
2023-01-19T19:21:42.121Z,3.08
2023-01-19T19:25:43.661Z,3.05
2023-01-19T19:29:48.783Z,3.05
2023-01-19T19:33:51.234Z,3.04
2023-01-19T19:37:57.417Z,3.02
2023-01-19T19:41:59.192Z,3.01
2023-01-19T19:46:05.850Z,3.01
2023-01-19T19:50:08.042Z,3.04
2023-01-19T19:54:09.581Z,3.02
2023-01-19T19:58:11.369Z,3.04
2023-01-19T20:02:13.006Z,3.05
2023-01-19T20:06:22.578Z,3.04
2023-01-19T20:10:26.051Z,3.02
2023-01-19T20:14:27.667Z,3.04
2023-01-19T20:18:29.720Z,3.02
2023-01-19T20:22:32.895Z,3.02
2023-01-19T20:26:38.787Z,3.04
2023-01-19T20:30:40.450Z,3.02
2023-01-19T20:34:42.000Z,3.04
2023-01-19T20:38:44.004Z,3.02
2023-01-19T20:42:45.577Z,3.01
2023-01-19T20:46:47.600Z,2.99
2023-01-19T20:50:49.460Z,2.98
2023-01-19T20:54:52.196Z,2.97
2023-01-19T20:58:53.861Z,2.97
2023-01-19T21:02:56.593Z,2.98
2023-01-19T21:06:58.166Z,2.98
2023-01-19T21:10:59.857Z,2.97
2023-01-19T21:15:01.521Z,2.98
2023-01-19T21:19:04.197Z,2.98
2023-01-19T21:23:05.950Z,3.01
2023-01-19T21:27:07.520Z,2.99
2023-01-19T21:31:14.694Z,3.01
2023-01-19T21:35:16.364Z,3.01
2023-01-19T21:39:18.064Z,2.99
2023-01-19T21:43:20.091Z,2.99
2023-01-19T21:47:21.764Z,2.99
2023-01-19T21:51:23.392Z,2.98
2023-01-19T21:55:25.030Z,2.97
2023-01-19T21:59:26.605Z,2.97
2023-01-19T22:03:28.654Z,2.98
2023-01-19T22:07:30.240Z,2.97
2023-01-19T22:11:31.864Z,2.95
2023-01-19T22:15:33.782Z,2.94
2023-01-19T22:19:35.358Z,2.94
2023-01-19T22:23:37.471Z,2.94
2023-01-19T22:27:39.171Z,2.90
2023-01-19T22:31:40.935Z,2.89
2023-01-19T22:35:42.603Z,2.90
2023-01-19T22:39:44.380Z,2.89
2023-01-19T22:43:46.510Z,2.86
2023-01-19T22:47:48.055Z,2.86
2023-01-19T22:51:49.792Z,2.89
2023-01-19T22:55:51.487Z,2.87
2023-01-19T22:59:53.072Z,2.89
2023-01-19T23:03:55.441Z,2.89
2023-01-19T23:07:57.168Z,2.87
2023-01-19T23:11:58.884Z,2.83
2023-01-19T23:16:00.946Z,2.81
2023-01-19T23:20:04.982Z,2.80
2023-01-19T23:24:06.923Z,2.81
2023-01-19T23:28:08.597Z,2.79
2023-01-19T23:32:10.200Z,2.80
2023-01-19T23:36:12.509Z,2.79
2023-01-19T23:40:14.365Z,2.79
2023-01-19T23:44:17.175Z,2.77
2023-01-19T23:48:18.750Z,2.79
2023-01-19T23:52:20.343Z,2.76
2023-01-19T23:56:33.407Z,2.73
